Torm Horizon — OYNM2 — position and weather

sailwx.info

Track history (hours):
 
Tides and Currents Weather Stations Pressure Air Temp Water Temp Dewpoint Dewpoint Depression Visibility Wind Speed Wind Dir Waves Ship Positions

Torm Horizon

Last reported at 2017-May-28 17:54 UTC. Time now 2017-Jun-24 05:20 UTC.
Position N 49°37' W 003°56'.
Warning: this ship's position is 26 days out of date.

Length 183 m; draft 12 m.

Type: Ship. MMSI: 220566000.

Date/timePositionNaut miles runAvg speedWind from/ knotsBaromVisibWave heightAir tempDewpointWater temp
2017-May-28 17:54N 49°37' W 003°56'611.5
2017-May-28 17:20N 49°40' W 003°48'812.3
2017-May-28 16:43N 49°44' W 003°37'312.9
2017-May-28 16:30N 49°45' W 003°34'713.5
2017-May-28 16:00N 49°48' W 003°25'714.2
2017-May-28 15:30N 49°52' W 003°16'714.7
2017-May-28 15:00N 49°56' W 003°06'1514.9
2017-May-28 14:00N 50°02' W 002°45'714.3
2017-May-28 13:30N 50°04' W 002°34'2112.3
2017-May-28 11:46N 50°09' W 002°02'310.3
2017-May-28 11:30N 50°10' W 001°58'6 9.5
2017-May-28 10:52N 50°11' W 001°48'3 8.8
2017-May-28 10:30N 50°12' W 001°44'6 8.6
2017-May-28 09:50N 50°14' W 001°35'4 8.5
2017-May-28 09:25N 50°15' W 001°30'4 8.6
2017-May-28 09:00N 50°16' W 001°24'5 9.0
2017-May-28 08:29N 50°17' W 001°17'810.2
2017-May-28 07:41N 50°19' W 001°05'511.7
2017-May-28 07:16N 50°20' W 000°57'312.8
2017-May-28 07:00N 50°21' W 000°52'713.4
2017-May-28 06:30N 50°23' W 000°42'714.1
2017-May-28 06:00N 50°25' W 000°32'714.6
2017-May-28 05:30N 50°27' W 000°21'714.5
2017-May-28 05:00N 50°29' W 000°10'714.5
2017-May-28 04:30N 50°30' E 000°01'714.4
2017-May-28 04:00N 50°32' E 000°12'714.1
2017-May-28 03:30N 50°34' E 000°23'713.5
2017-May-28 03:00N 50°36' E 000°34'1812.4
2017-May-28 01:32N 50°46' E 000°57'011.3
2017-May-28 01:30N 50°46' E 000°58'510.9
2017-May-28 01:00N 50°49' E 001°05'510.6
2017-May-28 00:30N 50°52' E 001°12'510.0
2017-May-28 00:00N 50°55' E 001°18'510.5
2017-May-27 23:30N 50°59' E 001°24'612.1
2017-May-27 23:00N 51°03' E 001°30'713.5
2017-May-27 22:30N 51°08' E 001°38'714.5
2017-May-27 22:00N 51°13' E 001°46'714.8
2017-May-27 21:30N 51°19' E 001°52'714.1
2017-May-27 21:00N 51°25' E 001°58'612.8
2017-May-27 20:31N 51°23' E 002°08'613.0
2017-May-27 20:01N 51°20' E 002°17'713.8
2017-May-27 19:30N 51°23' E 002°28'713.4
2017-May-27 19:01N 51°23' E 002°39'510.8
2017-May-27 18:30N 51°24' E 002°47'611.6
2017-May-27 18:00N 51°25' E 002°56'612.2
2017-May-27 17:30N 51°24' E 003°06'612.3
2017-May-27 17:00N 51°25' E 003°15'612.4
2017-May-27 16:30N 51°25' E 003°25'612.1
2017-May-27 16:00N 51°26' E 003°35'5 9.9
2017-May-27 15:30N 51°24' E 003°43'510.7
2017-May-27 15:00N 51°21' E 003°49'8 8.2
2017-May-27 14:00N 51°26' E 003°59'4 7.0
2017-May-27 13:30N 51°23' E 004°02'4 7.9
2017-May-27 13:00N 51°22' E 004°08'3 6.2
2017-May-27 12:30N 51°22' E 004°13'3 5.3
2017-May-27 12:00N 51°21' E 004°17'0 0.0
2017-May-27 11:30N 51°21' E 004°17'0 0.0
2017-May-27 11:00N 51°21' E 004°17'1 2.4
2017-May-27 10:31N 51°20' E 004°18'3 5.7
2017-May-27 10:01N 51°17' E 004°20'2 4.3
2017-May-27 09:31N 51°15' E 004°22'0 0.4
2017-May-27 09:00N 51°15' E 004°22'0 0.0
2017-May-27 08:30N 51°15' E 004°22'0 0.0
2017-May-27 08:00N 51°15' E 004°22'0 0.0
2017-May-27 07:30N 51°15' E 004°22'0 0.0
2017-May-27 07:00N 51°15' E 004°22'0 0.0
2017-May-27 06:30N 51°15' E 004°22'0 0.0
2017-May-27 06:00N 51°15' E 004°22'0 0.0
2017-May-27 05:30N 51°15' E 004°22'0 0.0
2017-May-27 05:00N 51°15' E 004°22'0 0.0
2017-May-27 04:30N 51°15' E 004°22'0 0.0
2017-May-27 04:00N 51°15' E 004°22'0 0.0
2017-May-27 03:30N 51°15' E 004°22'0 0.0
2017-May-27 03:00N 51°15' E 004°22'0 0.0
2017-May-27 02:30N 51°15' E 004°22'0 0.0
2017-May-27 02:00N 51°15' E 004°22'0 0.0
2017-May-27 01:30N 51°15' E 004°22'0 0.0
2017-May-27 01:00N 51°15' E 004°22'0 0.0
2017-May-27 00:30N 51°15' E 004°22'0 0.0
2017-May-27 00:00N 51°15' E 004°22'0 0.0
2017-May-26 23:30N 51°15' E 004°22'0 0.0
2017-May-26 23:00N 51°15' E 004°22'0 0.0
2017-May-26 22:27N 51°15' E 004°22'0 0.0
2017-May-26 22:00N 51°15' E 004°22'0 0.0
2017-May-26 21:30N 51°15' E 004°22'0 0.0
2017-May-26 20:57N 51°15' E 004°22'0 0.0
2017-May-26 20:30N 51°15' E 004°22'0 0.0
2017-May-26 20:00N 51°15' E 004°22'0 0.0
2017-May-26 19:30N 51°15' E 004°22'0 0.0
2017-May-26 19:00N 51°15' E 004°22'0 0.0
2017-May-26 18:30N 51°15' E 004°22'0 0.0
2017-May-26 18:00N 51°15' E 004°22'0 0.0
2017-May-26 17:29N 51°15' E 004°22'0 0.0
2017-May-26 17:00N 51°15' E 004°22'0 0.0
2017-May-26 16:29N 51°15' E 004°22'0 0.0
2017-May-26 15:59N 51°15' E 004°22'0 0.0
2017-May-26 15:29N 51°15' E 004°22'0 0.0
2017-May-26 14:59N 51°15' E 004°22'0 0.0
2017-May-26 13:59N 51°15' E 004°22'0 0.0
2017-May-26 13:29N 51°15' E 004°22'0 0.0
2017-May-26 12:59N 51°15' E 004°22'0 0.0
2017-May-26 12:29N 51°15' E 004°22'0 0.0
2017-May-26 11:59N 51°15' E 004°22'0 0.0
2017-May-26 11:29N 51°15' E 004°22'0 0.0
2017-May-26 10:56N 51°15' E 004°22'0 0.0
2017-May-26 10:29N 51°15' E 004°22'0 0.0
2017-May-26 09:59N 51°15' E 004°22'0 0.0
2017-May-26 09:29N 51°15' E 004°22'0 0.0
2017-May-26 08:59N 51°15' E 004°22'0 0.0
2017-May-26 08:29N 51°15' E 004°22'0 0.0
2017-May-26 07:59N 51°15' E 004°22'0 0.0
2017-May-26 07:29N 51°15' E 004°22'0 0.0
2017-May-26 06:59N 51°15' E 004°22'0 0.0
2017-May-26 06:29N 51°15' E 004°22'0 0.0
2017-May-26 05:59N 51°15' E 004°22'0 0.0
2017-May-26 05:29N 51°15' E 004°22'0 0.0
2017-May-26 04:56N 51°15' E 004°22'0 0.0
2017-May-26 04:29N 51°15' E 004°22'0 0.0
2017-May-26 03:56N 51°15' E 004°22'0 0.0
2017-May-26 03:29N 51°15' E 004°22'0 0.0
2017-May-26 02:56N 51°15' E 004°22'0 0.0
2017-May-26 02:29N 51°15' E 004°22'0 0.0
2017-May-26 01:59N 51°15' E 004°22'0 0.0
2017-May-26 01:29N 51°15' E 004°22'0 0.0
2017-May-26 00:56N 51°15' E 004°22'0 0.0
2017-May-26 00:29N 51°15' E 004°22'0 0.0
2017-May-25 23:59N 51°15' E 004°22'0 0.0
2017-May-25 23:29N 51°15' E 004°22'0 0.0
2017-May-25 22:53N 51°15' E 004°22'0 0.0
2017-May-25 22:29N 51°15' E 004°22'0 0.0
2017-May-25 21:59N 51°15' E 004°22'0 0.0
2017-May-25 21:29N 51°15' E 004°22'0 0.0
2017-May-25 20:59N 51°15' E 004°22'0 0.0
2017-May-25 20:29N 51°15' E 004°22'0 0.0
2017-May-25 19:59N 51°15' E 004°22'0 0.0
2017-May-25 19:29N 51°15' E 004°22'0 0.0
2017-May-25 18:59N 51°15' E 004°22'0 0.0
2017-May-25 18:29N 51°15' E 004°22'0 0.0
2017-May-25 17:59N 51°15' E 004°22'0 0.0
2017-May-25 17:23N 51°15' E 004°22'0 0.0
2017-May-25 16:59N 51°15' E 004°22'0 0.0
2017-May-25 16:29N 51°15' E 004°22'0 0.0
2017-May-25 15:59N 51°15' E 004°22'0 0.0
2017-May-25 15:29N 51°15' E 004°22'0 0.0
2017-May-25 14:59N 51°15' E 004°22'0 0.0
2017-May-25 13:59N 51°15' E 004°22'0 0.0
2017-May-25 13:29N 51°15' E 004°22'0 0.0
2017-May-25 12:59N 51°15' E 004°22'0 0.0
2017-May-25 12:29N 51°15' E 004°22'0 0.0
2017-May-25 11:59N 51°15' E 004°22'0 0.0
2017-May-25 11:29N 51°15' E 004°22'0 0.0
2017-May-25 10:59N 51°15' E 004°22'0 0.0
2017-May-25 10:29N 51°15' E 004°22'0 0.0
2017-May-25 09:59N 51°15' E 004°22'0 0.0
2017-May-25 09:30N 51°15' E 004°22'0 0.3
2017-May-25 08:59N 51°15' E 004°22'0 0.0
2017-May-25 08:29N 51°15' E 004°22'0 0.0
2017-May-25 07:56N 51°15' E 004°22'0 0.0
2017-May-25 07:29N 51°15' E 004°22'0 0.0
2017-May-25 06:59N 51°15' E 004°22'0 0.0
2017-May-25 06:26N 51°15' E 004°22'0 0.0
2017-May-25 05:59N 51°15' E 004°22'0 0.0
2017-May-25 05:29N 51°15' E 004°22'0 0.0
2017-May-25 04:59N 51°15' E 004°22'0 0.0
2017-May-25 04:29N 51°15' E 004°22'0 0.0
2017-May-25 03:59N 51°15' E 004°22'0 0.0
2017-May-25 03:29N 51°15' E 004°22'0 0.0
2017-May-25 02:59N 51°15' E 004°22'0 0.0
2017-May-25 02:29N 51°15' E 004°22'0 0.0
2017-May-25 01:59N 51°15' E 004°22'0 0.0
2017-May-25 01:29N 51°15' E 004°22'0 0.0
2017-May-25 00:59N 51°15' E 004°22'0 0.0
2017-May-25 00:29N 51°15' E 004°22'0 0.0
2017-May-24 23:59N 51°15' E 004°22'0 0.0
2017-May-24 23:29N 51°15' E 004°22'0 0.0
2017-May-24 22:59N 51°15' E 004°22'0 0.0
2017-May-24 22:29N 51°15' E 004°22'0 0.0
2017-May-24 21:59N 51°15' E 004°22'0 0.0
2017-May-24 21:26N 51°15' E 004°22'0 0.0
2017-May-24 20:56N 51°15' E 004°22'0 0.0
2017-May-24 20:29N 51°15' E 004°22'0 0.0
2017-May-24 19:59N 51°15' E 004°22'0 0.0
2017-May-24 19:20N 51°15' E 004°22'0 0.0
2017-May-24 18:59N 51°15' E 004°22'0 0.0
2017-May-24 18:29N 51°15' E 004°22'0 0.0
2017-May-24 17:59N 51°15' E 004°22'0 0.0
2017-May-24 17:26N 51°15' E 004°22'0 0.0
2017-May-24 16:56N 51°15' E 004°22'0 0.0
2017-May-24 16:29N 51°15' E 004°22'0 0.0
2017-May-24 15:59N 51°15' E 004°22'0 0.0
2017-May-24 15:29N 51°15' E 004°22'0 0.0
2017-May-24 14:59N 51°15' E 004°22'0 0.0
2017-May-24 14:29N 51°15' E 004°22'0 0.0
2017-May-24 13:26N 51°15' E 004°22'0 0.0
2017-May-24 12:59N 51°15' E 004°22'0 0.0
2017-May-24 12:29N 51°15' E 004°22'0 0.0
2017-May-24 11:59N 51°15' E 004°22'0 0.0
2017-May-24 11:29N 51°15' E 004°22'0 0.0
2017-May-24 10:59N 51°15' E 004°22'0 0.0
2017-May-24 10:29N 51°15' E 004°22'0 0.0
2017-May-24 09:59N 51°15' E 004°22'0 0.0
2017-May-24 09:29N 51°15' E 004°22'0 0.0
2017-May-24 08:59N 51°15' E 004°22'0 0.0
2017-May-24 08:28N 51°15' E 004°22'0 0.0
2017-May-24 07:58N 51°15' E 004°22'0 0.0
2017-May-24 07:28N 51°15' E 004°22'0 0.0
2017-May-24 06:58N 51°15' E 004°22'0 0.0
2017-May-24 06:28N 51°15' E 004°22'0 0.0
2017-May-24 05:58N 51°15' E 004°22'0 0.0
2017-May-24 05:28N 51°15' E 004°22'0 0.0
2017-May-24 04:58N 51°15' E 004°22'0 0.0
2017-May-24 04:28N 51°15' E 004°22'0 0.5
2017-May-24 04:00N 51°15' E 004°22'3 5.1
2017-May-24 03:30N 51°18' E 004°20'3 6.7
2017-May-24 03:01N 51°21' E 004°18'0 0.9
2017-May-24 02:30N 51°21' E 004°17'0 0.0
2017-May-24 02:01N 51°21' E 004°17'1 2.0
2017-May-24 01:30N 51°21' E 004°16'4 7.8
2017-May-24 01:00N 51°24' E 004°11'510.7
2017-May-24 00:30N 51°23' E 004°03'4 8.0
2017-May-24 00:00N 51°25' E 003°58'713.4
2017-May-23 23:30N 51°21' E 003°50'713.2
2017-May-23 23:00N 51°25' E 003°42'611.4
2017-May-23 22:30N 51°25' E 003°33'816.5
2017-May-23 22:01N 51°24' E 003°20'816.8
2017-May-23 21:31N 51°24' E 003°06'815.2
2017-May-23 21:01N 51°25' E 002°54'713.6
2017-May-23 20:28N 51°22' E 002°43'511.9
2017-May-23 20:00N 51°23' E 002°35'1 2.1
2017-May-23 19:23N 51°24' E 002°34'0 0.0
2017-May-23 18:59N 51°24' E 002°34'0 0.1
2017-May-23 18:27N 51°24' E 002°34'0 0.0
2017-May-23 18:00N 51°24' E 002°34'0 0.0
2017-May-23 17:30N 51°24' E 002°34'0 0.0
2017-May-23 17:00N 51°24' E 002°34'0 0.1
2017-May-23 16:30N 51°24' E 002°34'0 0.0
2017-May-23 16:00N 51°24' E 002°34'0 0.1
2017-May-23 15:30N 51°24' E 002°34'0 0.2
2017-May-23 14:57N 51°24' E 002°35'0 0.1
2017-May-23 13:36N 51°24' E 002°35'0 0.1
2017-May-23 13:30N 51°24' E 002°35'0 0.0
2017-May-23 12:54N 51°24' E 002°35'0 0.0
2017-May-23 12:30N 51°24' E 002°35'0 0.0
2017-May-23 12:00N 51°24' E 002°35'0 0.0
2017-May-23 11:30N 51°24' E 002°35'0 0.0
2017-May-23 10:45N 51°24' E 002°35'0 0.0
2017-May-23 09:27N 51°24' E 002°35'0 0.0
2017-May-23 08:54N 51°24' E 002°35'0 0.1
2017-May-23 08:30N 51°24' E 002°35'0 0.1
2017-May-23 07:57N 51°24' E 002°35'0 0.1
2017-May-23 07:30N 51°24' E 002°35'0 0.2
2017-May-23 07:00N 51°24' E 002°35'0 0.0
2017-May-23 06:27N 51°24' E 002°34'0 0.0
2017-May-23 06:00N 51°24' E 002°34'0 0.0
2017-May-23 05:30N 51°24' E 002°34'0 0.0
2017-May-23 05:00N 51°24' E 002°34'0 0.2
2017-May-23 04:30N 51°24' E 002°34'0 0.1
2017-May-23 04:00N 51°24' E 002°35'0 0.0
2017-May-23 03:30N 51°24' E 002°35'0 0.2
2017-May-23 02:54N 51°24' E 002°35'0 0.0
2017-May-23 02:27N 51°24' E 002°35'0 0.0
2017-May-23 02:00N 51°24' E 002°35'0 0.0
2017-May-23 01:30N 51°24' E 002°35'0 0.0
2017-May-23 01:00N 51°24' E 002°35'0 0.0
2017-May-23 00:30N 51°24' E 002°35'0 0.0
2017-May-23 00:00N 51°24' E 002°35'0 0.0
2017-May-22 23:30N 51°24' E 002°35'0 0.0
2017-May-22 22:06N 51°24' E 002°35'0 0.0
2017-May-22 22:00N 51°24' E 002°35'0 0.0
2017-May-22 21:24N 51°24' E 002°35'0 0.0
2017-May-22 21:00N 51°24' E 002°35'0 0.2
2017-May-22 20:27N 51°24' E 002°35'0 0.2
2017-May-22 19:59N 51°24' E 002°35'0 0.0
2017-May-22 18:54N 51°24' E 002°34'0 0.0
2017-May-22 18:30N 51°24' E 002°34'0 0.0
2017-May-22 17:56N 51°24' E 002°34'0 0.0
2017-May-22 17:29N 51°24' E 002°34'0 0.0
2017-May-22 16:57N 51°24' E 002°34'0 0.0
2017-May-22 16:20N 51°24' E 002°34'0 0.0
2017-May-22 15:59N 51°24' E 002°34'0 0.0
2017-May-22 15:20N 51°24' E 002°34'0 0.0
2017-May-22 14:59N 51°24' E 002°34'0 0.0
2017-May-22 13:47N 51°24' E 002°34'0 0.1
2017-May-22 13:29N 51°24' E 002°34'0 0.1
2017-May-22 12:50N 51°25' E 002°35'0 0.1
2017-May-22 11:59N 51°24' E 002°35'0 0.0
2017-May-22 11:23N 51°24' E 002°35'0 0.3
2017-May-22 11:00N 51°25' E 002°35'2 3.8
2017-May-22 10:31N 51°23' E 002°33'510.4
2017-May-22 10:00N 51°21' E 002°26'4 8.7
2017-May-22 09:30N 51°18' E 002°20'714.5
2017-May-22 09:00N 51°15' E 002°10'815.3
2017-May-22 08:30N 51°11' E 001°59'815.6
2017-May-22 08:00N 51°07' E 001°48'815.9
2017-May-22 07:30N 51°01' E 001°40'815.7
2017-May-22 07:00N 50°56' E 001°31'815.3
2017-May-22 06:30N 50°49' E 001°26'714.7
2017-May-22 06:00N 50°42' E 001°22'714.3
2017-May-22 05:29N 50°37' E 001°13'714.4
2017-May-22 05:00N 50°32' E 001°05'913.9
2017-May-22 04:22N 50°28' E 000°53'514.2
2017-May-22 04:00N 50°26' E 000°45'714.0
2017-May-22 03:30N 50°24' E 000°35'713.8
2017-May-22 03:00N 50°23' E 000°24'713.6
2017-May-22 02:31N 50°21' E 000°14'713.2
2017-May-22 02:00N 50°19' E 000°04'612.8
2017-May-22 01:31N 50°18' W 000°06'612.5
2017-May-22 01:00N 50°16' W 000°15'612.1
2017-May-22 00:31N 50°15' W 000°24'612.0
2017-May-22 00:00N 50°13' W 000°34'611.8
2017-May-21 23:30N 50°12' W 000°43'1911.2
2017-May-21 21:46N 50°07' W 001°12'311.4
2017-May-21 21:30N 50°06' W 001°16'611.4
2017-May-21 21:00N 50°04' W 001°25'611.5
2017-May-21 20:30N 50°03' W 001°34'3113.3
2017-May-21 18:11N 49°55' W 002°20'414.6
2017-May-21 17:56N 49°54' W 002°25'614.6
2017-May-21 17:30N 49°52' W 002°35'714.5
2017-May-21 17:00N 49°51' W 002°46'714.6
2017-May-21 16:30N 49°47' W 002°56'714.6
2017-May-21 16:00N 49°44' W 003°06'714.7
2017-May-21 15:30N 49°41' W 003°16'714.6
2017-May-21 15:00N 49°37' W 003°26'1514.5
2017-May-21 14:00N 49°30' W 003°46'1414.5
2017-May-21 13:01N 49°23' W 004°05'014.5
2017-May-21 13:00N 49°23' W 004°05'914.5
2017-May-21 12:22N 49°19' W 004°17'3714.6
2017-May-21 09:48N 49°00' W 005°07'514.7
2017-May-21 09:28N 48°58' W 005°13'714.6
2017-May-21 09:00N 48°54' W 005°22'714.2
2017-May-21 08:30N 48°50' W 005°31'2513.7
2017-May-21 06:43N 48°30' W 005°52'313.7
2017-May-21 06:30N 48°28' W 005°54'56112.9
2017-May-19 10:54N 39°35' W 009°58'513.0
2017-May-19 10:30N 39°30' W 009°58'612.9
2017-May-19 10:00N 39°23' W 009°58'612.7
2017-May-19 09:30N 39°17' W 009°58'612.9
2017-May-19 09:00N 39°10' W 009°58'612.8
2017-May-19 08:30N 39°04' W 009°58'612.9
2017-May-19 08:00N 38°58' W 009°58'612.8
2017-May-19 07:30N 38°51' W 009°58'612.6
2017-May-19 07:00N 38°45' W 009°58'612.3
2017-May-19 06:30N 38°39' W 009°57'612.3
2017-May-19 06:00N 38°33' W 009°55'611.8
2017-May-19 05:30N 38°27' W 009°53'612.1
2017-May-19 05:00N 38°21' W 009°52'1312.2
2017-May-19 03:54N 38°08' W 009°48'1012.1
2017-May-19 03:05N 37°58' W 009°45'311.9
2017-May-19 02:49N 37°55' W 009°44'611.9
2017-May-19 02:18N 37°49' W 009°42'5411.6
2017-May-18 21:40N 36°57' W 009°26'  
Track history (hours):
 
Tides and Currents Weather Stations Pressure Air Temp Water Temp Dewpoint Dewpoint Depression Visibility Wind Speed Wind Dir Waves Ship Positions

Torm Horizon

Last reported at 2017-May-28 17:54 UTC. Time now 2017-Jun-24 05:20 UTC.
Position N 49°37' W 003°56'.
Warning: this ship's position is 26 days out of date.

Length 183 m; draft 12 m.

Type: Ship. MMSI: 220566000.

Date/timePositionNaut miles runAvg speedWind from/ knotsBaromVisibWave heightAir tempDewpointWater temp
2017-May-28 17:54N 49°37' W 003°56'611.5
2017-May-28 17:20N 49°40' W 003°48'812.3
2017-May-28 16:43N 49°44' W 003°37'312.9
2017-May-28 16:30N 49°45' W 003°34'713.5
2017-May-28 16:00N 49°48' W 003°25'714.2
2017-May-28 15:30N 49°52' W 003°16'714.7
2017-May-28 15:00N 49°56' W 003°06'1514.9
2017-May-28 14:00N 50°02' W 002°45'714.3
2017-May-28 13:30N 50°04' W 002°34'2112.3
2017-May-28 11:46N 50°09' W 002°02'310.3
2017-May-28 11:30N 50°10' W 001°58'6 9.5
2017-May-28 10:52N 50°11' W 001°48'3 8.8
2017-May-28 10:30N 50°12' W 001°44'6 8.6
2017-May-28 09:50N 50°14' W 001°35'4 8.5
2017-May-28 09:25N 50°15' W 001°30'4 8.6
2017-May-28 09:00N 50°16' W 001°24'5 9.0
2017-May-28 08:29N 50°17' W 001°17'810.2
2017-May-28 07:41N 50°19' W 001°05'511.7
2017-May-28 07:16N 50°20' W 000°57'312.8
2017-May-28 07:00N 50°21' W 000°52'713.4
2017-May-28 06:30N 50°23' W 000°42'714.1
2017-May-28 06:00N 50°25' W 000°32'714.6
2017-May-28 05:30N 50°27' W 000°21'714.5
2017-May-28 05:00N 50°29' W 000°10'714.5
2017-May-28 04:30N 50°30' E 000°01'714.4
2017-May-28 04:00N 50°32' E 000°12'714.1
2017-May-28 03:30N 50°34' E 000°23'713.5
2017-May-28 03:00N 50°36' E 000°34'1812.4
2017-May-28 01:32N 50°46' E 000°57'011.3
2017-May-28 01:30N 50°46' E 000°58'510.9
2017-May-28 01:00N 50°49' E 001°05'510.6
2017-May-28 00:30N 50°52' E 001°12'510.0
2017-May-28 00:00N 50°55' E 001°18'510.5
2017-May-27 23:30N 50°59' E 001°24'612.1
2017-May-27 23:00N 51°03' E 001°30'713.5
2017-May-27 22:30N 51°08' E 001°38'714.5
2017-May-27 22:00N 51°13' E 001°46'714.8
2017-May-27 21:30N 51°19' E 001°52'714.1
2017-May-27 21:00N 51°25' E 001°58'612.8
2017-May-27 20:31N 51°23' E 002°08'613.0
2017-May-27 20:01N 51°20' E 002°17'713.8
2017-May-27 19:30N 51°23' E 002°28'713.4
2017-May-27 19:01N 51°23' E 002°39'510.8
2017-May-27 18:30N 51°24' E 002°47'611.6
2017-May-27 18:00N 51°25' E 002°56'612.2
2017-May-27 17:30N 51°24' E 003°06'612.3
2017-May-27 17:00N 51°25' E 003°15'612.4
2017-May-27 16:30N 51°25' E 003°25'612.1
2017-May-27 16:00N 51°26' E 003°35'5 9.9
2017-May-27 15:30N 51°24' E 003°43'510.7
2017-May-27 15:00N 51°21' E 003°49'8 8.2
2017-May-27 14:00N 51°26' E 003°59'4 7.0
2017-May-27 13:30N 51°23' E 004°02'4 7.9
2017-May-27 13:00N 51°22' E 004°08'3 6.2
2017-May-27 12:30N 51°22' E 004°13'3 5.3
2017-May-27 12:00N 51°21' E 004°17'0 0.0
2017-May-27 11:30N 51°21' E 004°17'0 0.0
2017-May-27 11:00N 51°21' E 004°17'1 2.4
2017-May-27 10:31N 51°20' E 004°18'3 5.7
2017-May-27 10:01N 51°17' E 004°20'2 4.3
2017-May-27 09:31N 51°15' E 004°22'0 0.4
2017-May-27 09:00N 51°15' E 004°22'0 0.0
2017-May-27 08:30N 51°15' E 004°22'0 0.0
2017-May-27 08:00N 51°15' E 004°22'0 0.0
2017-May-27 07:30N 51°15' E 004°22'0 0.0
2017-May-27 07:00N 51°15' E 004°22'0 0.0
2017-May-27 06:30N 51°15' E 004°22'0 0.0
2017-May-27 06:00N 51°15' E 004°22'0 0.0
2017-May-27 05:30N 51°15' E 004°22'0 0.0
2017-May-27 05:00N 51°15' E 004°22'0 0.0
2017-May-27 04:30N 51°15' E 004°22'0 0.0
2017-May-27 04:00N 51°15' E 004°22'0 0.0
2017-May-27 03:30N 51°15' E 004°22'0 0.0
2017-May-27 03:00N 51°15' E 004°22'0 0.0
2017-May-27 02:30N 51°15' E 004°22'0 0.0
2017-May-27 02:00N 51°15' E 004°22'0 0.0
2017-May-27 01:30N 51°15' E 004°22'0 0.0
2017-May-27 01:00N 51°15' E 004°22'0 0.0
2017-May-27 00:30N 51°15' E 004°22'0 0.0
2017-May-27 00:00N 51°15' E 004°22'0 0.0
2017-May-26 23:30N 51°15' E 004°22'0 0.0
2017-May-26 23:00N 51°15' E 004°22'0 0.0
2017-May-26 22:27N 51°15' E 004°22'0 0.0
2017-May-26 22:00N 51°15' E 004°22'0 0.0
2017-May-26 21:30N 51°15' E 004°22'0 0.0
2017-May-26 20:57N 51°15' E 004°22'0 0.0
2017-May-26 20:30N 51°15' E 004°22'0 0.0
2017-May-26 20:00N 51°15' E 004°22'0 0.0
2017-May-26 19:30N 51°15' E 004°22'0 0.0
2017-May-26 19:00N 51°15' E 004°22'0 0.0
2017-May-26 18:30N 51°15' E 004°22'0 0.0
2017-May-26 18:00N 51°15' E 004°22'0 0.0
2017-May-26 17:29N 51°15' E 004°22'0 0.0
2017-May-26 17:00N 51°15' E 004°22'0 0.0
2017-May-26 16:29N 51°15' E 004°22'0 0.0
2017-May-26 15:59N 51°15' E 004°22'0 0.0
2017-May-26 15:29N 51°15' E 004°22'0 0.0
2017-May-26 14:59N 51°15' E 004°22'0 0.0
2017-May-26 13:59N 51°15' E 004°22'0 0.0
2017-May-26 13:29N 51°15' E 004°22'0 0.0
2017-May-26 12:59N 51°15' E 004°22'0 0.0
2017-May-26 12:29N 51°15' E 004°22'0 0.0
2017-May-26 11:59N 51°15' E 004°22'0 0.0
2017-May-26 11:29N 51°15' E 004°22'0 0.0
2017-May-26 10:56N 51°15' E 004°22'0 0.0
2017-May-26 10:29N 51°15' E 004°22'0 0.0
2017-May-26 09:59N 51°15' E 004°22'0 0.0
2017-May-26 09:29N 51°15' E 004°22'0 0.0
2017-May-26 08:59N 51°15' E 004°22'0 0.0
2017-May-26 08:29N 51°15' E 004°22'0 0.0
2017-May-26 07:59N 51°15' E 004°22'0 0.0
2017-May-26 07:29N 51°15' E 004°22'0 0.0
2017-May-26 06:59N 51°15' E 004°22'0 0.0
2017-May-26 06:29N 51°15' E 004°22'0 0.0
2017-May-26 05:59N 51°15' E 004°22'0 0.0
2017-May-26 05:29N 51°15' E 004°22'0 0.0
2017-May-26 04:56N 51°15' E 004°22'0 0.0
2017-May-26 04:29N 51°15' E 004°22'0 0.0
2017-May-26 03:56N 51°15' E 004°22'0 0.0
2017-May-26 03:29N 51°15' E 004°22'0 0.0
2017-May-26 02:56N 51°15' E 004°22'0 0.0
2017-May-26 02:29N 51°15' E 004°22'0 0.0
2017-May-26 01:59N 51°15' E 004°22'0 0.0
2017-May-26 01:29N 51°15' E 004°22'0 0.0
2017-May-26 00:56N 51°15' E 004°22'0 0.0
2017-May-26 00:29N 51°15' E 004°22'0 0.0
2017-May-25 23:59N 51°15' E 004°22'0 0.0
2017-May-25 23:29N 51°15' E 004°22'0 0.0
2017-May-25 22:53N 51°15' E 004°22'0 0.0
2017-May-25 22:29N 51°15' E 004°22'0 0.0
2017-May-25 21:59N 51°15' E 004°22'0 0.0
2017-May-25 21:29N 51°15' E 004°22'0 0.0
2017-May-25 20:59N 51°15' E 004°22'0 0.0
2017-May-25 20:29N 51°15' E 004°22'0 0.0
2017-May-25 19:59N 51°15' E 004°22'0 0.0
2017-May-25 19:29N 51°15' E 004°22'0 0.0
2017-May-25 18:59N 51°15' E 004°22'0 0.0
2017-May-25 18:29N 51°15' E 004°22'0 0.0
2017-May-25 17:59N 51°15' E 004°22'0 0.0
2017-May-25 17:23N 51°15' E 004°22'0 0.0
2017-May-25 16:59N 51°15' E 004°22'0 0.0
2017-May-25 16:29N 51°15' E 004°22'0 0.0
2017-May-25 15:59N 51°15' E 004°22'0 0.0
2017-May-25 15:29N 51°15' E 004°22'0 0.0
2017-May-25 14:59N 51°15' E 004°22'0 0.0
2017-May-25 13:59N 51°15' E 004°22'0 0.0
2017-May-25 13:29N 51°15' E 004°22'0 0.0
2017-May-25 12:59N 51°15' E 004°22'0 0.0
2017-May-25 12:29N 51°15' E 004°22'0 0.0
2017-May-25 11:59N 51°15' E 004°22'0 0.0
2017-May-25 11:29N 51°15' E 004°22'0 0.0
2017-May-25 10:59N 51°15' E 004°22'0 0.0
2017-May-25 10:29N 51°15' E 004°22'0 0.0
2017-May-25 09:59N 51°15' E 004°22'0 0.0
2017-May-25 09:30N 51°15' E 004°22'0 0.3
2017-May-25 08:59N 51°15' E 004°22'0 0.0
2017-May-25 08:29N 51°15' E 004°22'0 0.0
2017-May-25 07:56N 51°15' E 004°22'0 0.0
2017-May-25 07:29N 51°15' E 004°22'0 0.0
2017-May-25 06:59N 51°15' E 004°22'0 0.0
2017-May-25 06:26N 51°15' E 004°22'0 0.0
2017-May-25 05:59N 51°15' E 004°22'0 0.0
2017-May-25 05:29N 51°15' E 004°22'0 0.0
2017-May-25 04:59N 51°15' E 004°22'0 0.0
2017-May-25 04:29N 51°15' E 004°22'0 0.0
2017-May-25 03:59N 51°15' E 004°22'0 0.0
2017-May-25 03:29N 51°15' E 004°22'0 0.0
2017-May-25 02:59N 51°15' E 004°22'0 0.0
2017-May-25 02:29N 51°15' E 004°22'0 0.0
2017-May-25 01:59N 51°15' E 004°22'0 0.0
2017-May-25 01:29N 51°15' E 004°22'0 0.0
2017-May-25 00:59N 51°15' E 004°22'0 0.0
2017-May-25 00:29N 51°15' E 004°22'0 0.0
2017-May-24 23:59N 51°15' E 004°22'0 0.0
2017-May-24 23:29N 51°15' E 004°22'0 0.0
2017-May-24 22:59N 51°15' E 004°22'0 0.0
2017-May-24 22:29N 51°15' E 004°22'0 0.0
2017-May-24 21:59N 51°15' E 004°22'0 0.0
2017-May-24 21:26N 51°15' E 004°22'0 0.0
2017-May-24 20:56N 51°15' E 004°22'0 0.0
2017-May-24 20:29N 51°15' E 004°22'0 0.0
2017-May-24 19:59N 51°15' E 004°22'0 0.0
2017-May-24 19:20N 51°15' E 004°22'0 0.0
2017-May-24 18:59N 51°15' E 004°22'0 0.0
2017-May-24 18:29N 51°15' E 004°22'0 0.0
2017-May-24 17:59N 51°15' E 004°22'0 0.0
2017-May-24 17:26N 51°15' E 004°22'0 0.0
2017-May-24 16:56N 51°15' E 004°22'0 0.0
2017-May-24 16:29N 51°15' E 004°22'0 0.0
2017-May-24 15:59N 51°15' E 004°22'0 0.0
2017-May-24 15:29N 51°15' E 004°22'0 0.0
2017-May-24 14:59N 51°15' E 004°22'0 0.0
2017-May-24 14:29N 51°15' E 004°22'0 0.0
2017-May-24 13:26N 51°15' E 004°22'0 0.0
2017-May-24 12:59N 51°15' E 004°22'0 0.0
2017-May-24 12:29N 51°15' E 004°22'0 0.0
2017-May-24 11:59N 51°15' E 004°22'0 0.0
2017-May-24 11:29N 51°15' E 004°22'0 0.0
2017-May-24 10:59N 51°15' E 004°22'0 0.0
2017-May-24 10:29N 51°15' E 004°22'0 0.0
2017-May-24 09:59N 51°15' E 004°22'0 0.0
2017-May-24 09:29N 51°15' E 004°22'0 0.0
2017-May-24 08:59N 51°15' E 004°22'0 0.0
2017-May-24 08:28N 51°15' E 004°22'0 0.0
2017-May-24 07:58N 51°15' E 004°22'0 0.0
2017-May-24 07:28N 51°15' E 004°22'0 0.0
2017-May-24 06:58N 51°15' E 004°22'0 0.0
2017-May-24 06:28N 51°15' E 004°22'0 0.0
2017-May-24 05:58N 51°15' E 004°22'0 0.0
2017-May-24 05:28N 51°15' E 004°22'0 0.0
2017-May-24 04:58N 51°15' E 004°22'0 0.0
2017-May-24 04:28N 51°15' E 004°22'0 0.5
2017-May-24 04:00N 51°15' E 004°22'3 5.1
2017-May-24 03:30N 51°18' E 004°20'3 6.7
2017-May-24 03:01N 51°21' E 004°18'0 0.9
2017-May-24 02:30N 51°21' E 004°17'0 0.0
2017-May-24 02:01N 51°21' E 004°17'1 2.0
2017-May-24 01:30N 51°21' E 004°16'4 7.8
2017-May-24 01:00N 51°24' E 004°11'510.7
2017-May-24 00:30N 51°23' E 004°03'4 8.0
2017-May-24 00:00N 51°25' E 003°58'713.4
2017-May-23 23:30N 51°21' E 003°50'713.2
2017-May-23 23:00N 51°25' E 003°42'611.4
2017-May-23 22:30N 51°25' E 003°33'816.5
2017-May-23 22:01N 51°24' E 003°20'816.8
2017-May-23 21:31N 51°24' E 003°06'815.2
2017-May-23 21:01N 51°25' E 002°54'713.6
2017-May-23 20:28N 51°22' E 002°43'511.9
2017-May-23 20:00N 51°23' E 002°35'1 2.1
2017-May-23 19:23N 51°24' E 002°34'0 0.0
2017-May-23 18:59N 51°24' E 002°34'0 0.1
2017-May-23 18:27N 51°24' E 002°34'0 0.0
2017-May-23 18:00N 51°24' E 002°34'0 0.0
2017-May-23 17:30N 51°24' E 002°34'0 0.0
2017-May-23 17:00N 51°24' E 002°34'0 0.1
2017-May-23 16:30N 51°24' E 002°34'0 0.0
2017-May-23 16:00N 51°24' E 002°34'0 0.1
2017-May-23 15:30N 51°24' E 002°34'0 0.2
2017-May-23 14:57N 51°24' E 002°35'0 0.1
2017-May-23 13:36N 51°24' E 002°35'0 0.1
2017-May-23 13:30N 51°24' E 002°35'0 0.0
2017-May-23 12:54N 51°24' E 002°35'0 0.0
2017-May-23 12:30N 51°24' E 002°35'0 0.0
2017-May-23 12:00N 51°24' E 002°35'0 0.0
2017-May-23 11:30N 51°24' E 002°35'0 0.0
2017-May-23 10:45N 51°24' E 002°35'0 0.0
2017-May-23 09:27N 51°24' E 002°35'0 0.0
2017-May-23 08:54N 51°24' E 002°35'0 0.1
2017-May-23 08:30N 51°24' E 002°35'0 0.1
2017-May-23 07:57N 51°24' E 002°35'0 0.1
2017-May-23 07:30N 51°24' E 002°35'0 0.2
2017-May-23 07:00N 51°24' E 002°35'0 0.0
2017-May-23 06:27N 51°24' E 002°34'0 0.0
2017-May-23 06:00N 51°24' E 002°34'0 0.0
2017-May-23 05:30N 51°24' E 002°34'0 0.0
2017-May-23 05:00N 51°24' E 002°34'0 0.2
2017-May-23 04:30N 51°24' E 002°34'0 0.1
2017-May-23 04:00N 51°24' E 002°35'0 0.0
2017-May-23 03:30N 51°24' E 002°35'0 0.2
2017-May-23 02:54N 51°24' E 002°35'0 0.0
2017-May-23 02:27N 51°24' E 002°35'0 0.0
2017-May-23 02:00N 51°24' E 002°35'0 0.0
2017-May-23 01:30N 51°24' E 002°35'0 0.0
2017-May-23 01:00N 51°24' E 002°35'0 0.0
2017-May-23 00:30N 51°24' E 002°35'0 0.0
2017-May-23 00:00N 51°24' E 002°35'0 0.0
2017-May-22 23:30N 51°24' E 002°35'0 0.0
2017-May-22 22:06N 51°24' E 002°35'0 0.0
2017-May-22 22:00N 51°24' E 002°35'0 0.0
2017-May-22 21:24N 51°24' E 002°35'0 0.0
2017-May-22 21:00N 51°24' E 002°35'0 0.2
2017-May-22 20:27N 51°24' E 002°35'0 0.2
2017-May-22 19:59N 51°24' E 002°35'0 0.0
2017-May-22 18:54N 51°24' E 002°34'0 0.0
2017-May-22 18:30N 51°24' E 002°34'0 0.0
2017-May-22 17:56N 51°24' E 002°34'0 0.0
2017-May-22 17:29N 51°24' E 002°34'0 0.0
2017-May-22 16:57N 51°24' E 002°34'0 0.0
2017-May-22 16:20N 51°24' E 002°34'0 0.0
2017-May-22 15:59N 51°24' E 002°34'0 0.0
2017-May-22 15:20N 51°24' E 002°34'0 0.0
2017-May-22 14:59N 51°24' E 002°34'0 0.0
2017-May-22 13:47N 51°24' E 002°34'0 0.1
2017-May-22 13:29N 51°24' E 002°34'0 0.1
2017-May-22 12:50N 51°25' E 002°35'0 0.1
2017-May-22 11:59N 51°24' E 002°35'0 0.0
2017-May-22 11:23N 51°24' E 002°35'0 0.3
2017-May-22 11:00N 51°25' E 002°35'2 3.8
2017-May-22 10:31N 51°23' E 002°33'510.4
2017-May-22 10:00N 51°21' E 002°26'4 8.7
2017-May-22 09:30N 51°18' E 002°20'714.5
2017-May-22 09:00N 51°15' E 002°10'815.3
2017-May-22 08:30N 51°11' E 001°59'815.6
2017-May-22 08:00N 51°07' E 001°48'815.9
2017-May-22 07:30N 51°01' E 001°40'815.7
2017-May-22 07:00N 50°56' E 001°31'815.3
2017-May-22 06:30N 50°49' E 001°26'714.7
2017-May-22 06:00N 50°42' E 001°22'714.3
2017-May-22 05:29N 50°37' E 001°13'714.4
2017-May-22 05:00N 50°32' E 001°05'913.9
2017-May-22 04:22N 50°28' E 000°53'514.2
2017-May-22 04:00N 50°26' E 000°45'714.0
2017-May-22 03:30N 50°24' E 000°35'713.8
2017-May-22 03:00N 50°23' E 000°24'713.6
2017-May-22 02:31N 50°21' E 000°14'713.2
2017-May-22 02:00N 50°19' E 000°04'612.8
2017-May-22 01:31N 50°18' W 000°06'612.5
2017-May-22 01:00N 50°16' W 000°15'612.1
2017-May-22 00:31N 50°15' W 000°24'612.0
2017-May-22 00:00N 50°13' W 000°34'611.8
2017-May-21 23:30N 50°12' W 000°43'1911.2
2017-May-21 21:46N 50°07' W 001°12'311.4
2017-May-21 21:30N 50°06' W 001°16'611.4
2017-May-21 21:00N 50°04' W 001°25'611.5
2017-May-21 20:30N 50°03' W 001°34'3113.3
2017-May-21 18:11N 49°55' W 002°20'414.6
2017-May-21 17:56N 49°54' W 002°25'614.6
2017-May-21 17:30N 49°52' W 002°35'714.5
2017-May-21 17:00N 49°51' W 002°46'714.6
2017-May-21 16:30N 49°47' W 002°56'714.6
2017-May-21 16:00N 49°44' W 003°06'714.7
2017-May-21 15:30N 49°41' W 003°16'714.6
2017-May-21 15:00N 49°37' W 003°26'1514.5
2017-May-21 14:00N 49°30' W 003°46'1414.5
2017-May-21 13:01N 49°23' W 004°05'014.5
2017-May-21 13:00N 49°23' W 004°05'914.5
2017-May-21 12:22N 49°19' W 004°17'3714.6
2017-May-21 09:48N 49°00' W 005°07'514.7
2017-May-21 09:28N 48°58' W 005°13'714.6
2017-May-21 09:00N 48°54' W 005°22'714.2
2017-May-21 08:30N 48°50' W 005°31'2513.7
2017-May-21 06:43N 48°30' W 005°52'313.7
2017-May-21 06:30N 48°28' W 005°54'56112.9
2017-May-19 10:54N 39°35' W 009°58'513.0
2017-May-19 10:30N 39°30' W 009°58'612.9
2017-May-19 10:00N 39°23' W 009°58'612.7
2017-May-19 09:30N 39°17' W 009°58'612.9
2017-May-19 09:00N 39°10' W 009°58'612.8
2017-May-19 08:30N 39°04' W 009°58'612.9
2017-May-19 08:00N 38°58' W 009°58'612.8
2017-May-19 07:30N 38°51' W 009°58'612.6
2017-May-19 07:00N 38°45' W 009°58'612.3
2017-May-19 06:30N 38°39' W 009°57'612.3
2017-May-19 06:00N 38°33' W 009°55'611.8
2017-May-19 05:30N 38°27' W 009°53'612.1
2017-May-19 05:00N 38°21' W 009°52'1312.2
2017-May-19 03:54N 38°08' W 009°48'1012.1
2017-May-19 03:05N 37°58' W 009°45'311.9
2017-May-19 02:49N 37°55' W 009°44'611.9
2017-May-19 02:18N 37°49' W 009°42'5411.6
2017-May-18 21:40N 36°57' W 009°26'  

Dump ship's entire track history